sensor_id;sensor_type;location;lat;lon;timestamp;P1;durP1;ratioP1;P2;durP2;ratioP2
46717;SDS011;32448;44.960;-0.698;2023-02-04T00:00:25;16.63;;;8.90;;
46717;SDS011;32448;44.960;-0.698;2023-02-04T00:02:57;17.90;;;8.85;;
46717;SDS011;32448;44.960;-0.698;2023-02-04T00:05:26;18.05;;;8.93;;
46717;SDS011;32448;44.960;-0.698;2023-02-04T00:07:54;17.30;;;9.98;;
46717;SDS011;32448;44.960;-0.698;2023-02-04T00:10:22;20.60;;;11.90;;
46717;SDS011;32448;44.960;-0.698;2023-02-04T00:12:50;19.10;;;11.35;;
46717;SDS011;32448;44.960;-0.698;2023-02-04T00:15:19;16.00;;;9.38;;
46717;SDS011;32448;44.960;-0.698;2023-02-04T00:17:48;16.60;;;9.15;;
46717;SDS011;32448;44.960;-0.698;2023-02-04T00:20:15;15.23;;;9.18;;
46717;SDS011;32448;44.960;-0.698;2023-02-04T00:22:43;17.30;;;9.70;;
46717;SDS011;32448;44.960;-0.698;2023-02-04T00:25:10;20.92;;;9.50;;
46717;SDS011;32448;44.960;-0.698;2023-02-04T00:27:38;16.10;;;8.32;;
46717;SDS011;32448;44.960;-0.698;2023-02-04T00:30:05;15.02;;;9.00;;
46717;SDS011;32448;44.960;-0.698;2023-02-04T00:32:34;16.60;;;9.75;;
46717;SDS011;32448;44.960;-0.698;2023-02-04T00:35:01;15.82;;;8.60;;
46717;SDS011;32448;44.960;-0.698;2023-02-04T00:37:31;15.65;;;8.45;;
46717;SDS011;32448;44.960;-0.698;2023-02-04T00:39:58;14.82;;;8.48;;
46717;SDS011;32448;44.960;-0.698;2023-02-04T00:42:25;14.95;;;8.23;;
46717;SDS011;32448;44.960;-0.698;2023-02-04T00:44:53;16.95;;;8.50;;
46717;SDS011;32448;44.960;-0.698;2023-02-04T00:47:22;15.52;;;9.30;;
46717;SDS011;32448;44.960;-0.698;2023-02-04T00:49:49;16.73;;;9.35;;
46717;SDS011;32448;44.960;-0.698;2023-02-04T00:52:16;17.70;;;8.88;;
46717;SDS011;32448;44.960;-0.698;2023-02-04T00:54:43;16.55;;;9.07;;
46717;SDS011;32448;44.960;-0.698;2023-02-04T00:57:11;15.75;;;9.20;;
46717;SDS011;32448;44.960;-0.698;2023-02-04T00:59:38;22.27;;;9.32;;
46717;SDS011;32448;44.960;-0.698;2023-02-04T01:02:06;14.32;;;8.15;;
46717;SDS011;32448;44.960;-0.698;2023-02-04T01:04:33;13.75;;;8.00;;
46717;SDS011;32448;44.960;-0.698;2023-02-04T01:07:00;15.60;;;7.97;;
46717;SDS011;32448;44.960;-0.698;2023-02-04T01:09:28;13.60;;;8.02;;
46717;SDS011;32448;44.960;-0.698;2023-02-04T01:11:56;13.68;;;7.95;;
46717;SDS011;32448;44.960;-0.698;2023-02-04T01:14:24;14.30;;;8.30;;
46717;SDS011;32448;44.960;-0.698;2023-02-04T01:16:51;15.90;;;8.80;;
46717;SDS011;32448;44.960;-0.698;2023-02-04T01:19:19;18.67;;;9.02;;
46717;SDS011;32448;44.960;-0.698;2023-02-04T01:21:46;15.93;;;8.45;;
46717;SDS011;32448;44.960;-0.698;2023-02-04T01:24:14;15.75;;;8.13;;
46717;SDS011;32448;44.960;-0.698;2023-02-04T01:26:59;23.40;;;9.88;;
46717;SDS011;32448;44.960;-0.698;2023-02-04T01:29:27;19.30;;;8.88;;
46717;SDS011;32448;44.960;-0.698;2023-02-04T01:31:54;15.43;;;9.20;;
46717;SDS011;32448;44.960;-0.698;2023-02-04T01:34:22;15.93;;;8.20;;
46717;SDS011;32448;44.960;-0.698;2023-02-04T01:36:51;20.42;;;8.15;;
46717;SDS011;32448;44.960;-0.698;2023-02-04T01:39:19;15.77;;;8.25;;
46717;SDS011;32448;44.960;-0.698;2023-02-04T01:41:46;16.80;;;8.65;;
46717;SDS011;32448;44.960;-0.698;2023-02-04T01:44:14;15.63;;;7.88;;
46717;SDS011;32448;44.960;-0.698;2023-02-04T01:46:41;15.45;;;7.47;;
46717;SDS011;32448;44.960;-0.698;2023-02-04T01:49:08;16.48;;;8.40;;
46717;SDS011;32448;44.960;-0.698;2023-02-04T01:51:36;17.13;;;7.75;;
46717;SDS011;32448;44.960;-0.698;2023-02-04T01:54:04;15.75;;;7.70;;
46717;SDS011;32448;44.960;-0.698;2023-02-04T01:56:35;20.60;;;7.90;;
46717;SDS011;32448;44.960;-0.698;2023-02-04T01:59:08;20.38;;;8.32;;
46717;SDS011;32448;44.960;-0.698;2023-02-04T02:01:42;16.70;;;8.30;;
46717;SDS011;32448;44.960;-0.698;2023-02-04T02:04:18;19.98;;;9.43;;
46717;SDS011;32448;44.960;-0.698;2023-02-04T02:06:55;17.42;;;8.75;;
46717;SDS011;32448;44.960;-0.698;2023-02-04T02:09:25;16.10;;;8.43;;
46717;SDS011;32448;44.960;-0.698;2023-02-04T02:11:53;16.58;;;8.63;;
46717;SDS011;32448;44.960;-0.698;2023-02-04T02:14:21;18.65;;;8.52;;
46717;SDS011;32448;44.960;-0.698;2023-02-04T02:16:50;16.42;;;8.32;;
46717;SDS011;32448;44.960;-0.698;2023-02-04T02:19:28;17.92;;;9.70;;
46717;SDS011;32448;44.960;-0.698;2023-02-04T02:22:02;17.95;;;9.45;;
46717;SDS011;32448;44.960;-0.698;2023-02-04T02:24:34;16.50;;;9.18;;
46717;SDS011;32448;44.960;-0.698;2023-02-04T02:27:03;17.90;;;8.55;;
46717;SDS011;32448;44.960;-0.698;2023-02-04T02:29:34;14.95;;;7.53;;
46717;SDS011;32448;44.960;-0.698;2023-02-04T02:32:03;14.75;;;6.47;;
46717;SDS011;32448;44.960;-0.698;2023-02-04T02:34:31;15.65;;;7.40;;
46717;SDS011;32448;44.960;-0.698;2023-02-04T02:37:01;14.75;;;7.70;;
46717;SDS011;32448;44.960;-0.698;2023-02-04T02:39:30;12.85;;;7.35;;
46717;SDS011;32448;44.960;-0.698;2023-02-04T02:41:58;11.98;;;7.13;;
46717;SDS011;32448;44.960;-0.698;2023-02-04T02:44:26;13.73;;;7.30;;
46717;SDS011;32448;44.960;-0.698;2023-02-04T02:46:55;13.77;;;7.72;;
46717;SDS011;32448;44.960;-0.698;2023-02-04T02:49:23;15.90;;;7.35;;
46717;SDS011;32448;44.960;-0.698;2023-02-04T02:51:52;14.73;;;7.70;;
46717;SDS011;32448;44.960;-0.698;2023-02-04T02:54:26;14.70;;;7.28;;
46717;SDS011;32448;44.960;-0.698;2023-02-04T02:56:59;14.23;;;7.15;;
46717;SDS011;32448;44.960;-0.698;2023-02-04T02:59:26;14.38;;;7.75;;
46717;SDS011;32448;44.960;-0.698;2023-02-04T03:01:55;15.55;;;8.10;;
46717;SDS011;32448;44.960;-0.698;2023-02-04T03:04:32;16.20;;;8.38;;
46717;SDS011;32448;44.960;-0.698;2023-02-04T03:07:04;13.40;;;7.45;;
46717;SDS011;32448;44.960;-0.698;2023-02-04T03:09:33;16.80;;;7.75;;
46717;SDS011;32448;44.960;-0.698;2023-02-04T03:12:01;17.05;;;7.80;;
46717;SDS011;32448;44.960;-0.698;2023-02-04T03:14:29;12.15;;;7.80;;
46717;SDS011;32448;44.960;-0.698;2023-02-04T03:16:58;14.27;;;8.00;;
46717;SDS011;32448;44.960;-0.698;2023-02-04T03:19:28;13.65;;;7.38;;
46717;SDS011;32448;44.960;-0.698;2023-02-04T03:21:56;12.23;;;7.20;;
46717;SDS011;32448;44.960;-0.698;2023-02-04T03:24:24;14.40;;;7.43;;
46717;SDS011;32448;44.960;-0.698;2023-02-04T03:26:52;14.35;;;7.85;;
46717;SDS011;32448;44.960;-0.698;2023-02-04T03:29:20;15.25;;;8.77;;
46717;SDS011;32448;44.960;-0.698;2023-02-04T03:31:47;13.45;;;7.93;;
46717;SDS011;32448;44.960;-0.698;2023-02-04T03:34:15;11.68;;;6.88;;
46717;SDS011;32448;44.960;-0.698;2023-02-04T03:36:42;13.30;;;6.93;;
46717;SDS011;32448;44.960;-0.698;2023-02-04T03:39:09;12.32;;;7.72;;
46717;SDS011;32448;44.960;-0.698;2023-02-04T03:41:36;10.93;;;7.18;;
46717;SDS011;32448;44.960;-0.698;2023-02-04T03:44:04;10.52;;;6.55;;
46717;SDS011;32448;44.960;-0.698;2023-02-04T03:46:31;11.98;;;6.90;;
46717;SDS011;32448;44.960;-0.698;2023-02-04T03:48:58;12.55;;;7.05;;
46717;SDS011;32448;44.960;-0.698;2023-02-04T03:51:25;14.82;;;7.15;;
46717;SDS011;32448;44.960;-0.698;2023-02-04T03:53:53;12.95;;;7.55;;
46717;SDS011;32448;44.960;-0.698;2023-02-04T03:56:20;13.35;;;7.43;;
46717;SDS011;32448;44.960;-0.698;2023-02-04T03:58:48;15.00;;;7.55;;
46717;SDS011;32448;44.960;-0.698;2023-02-04T04:01:15;14.20;;;7.72;;
46717;SDS011;32448;44.960;-0.698;2023-02-04T04:03:43;13.73;;;6.97;;
46717;SDS011;32448;44.960;-0.698;2023-02-04T04:06:10;11.73;;;6.85;;
46717;SDS011;32448;44.960;-0.698;2023-02-04T04:08:38;15.85;;;7.57;;
46717;SDS011;32448;44.960;-0.698;2023-02-04T04:11:05;11.93;;;7.05;;
46717;SDS011;32448;44.960;-0.698;2023-02-04T04:13:32;15.50;;;7.57;;
46717;SDS011;32448;44.960;-0.698;2023-02-04T04:16:00;13.98;;;7.22;;
46717;SDS011;32448;44.960;-0.698;2023-02-04T04:18:30;13.43;;;7.28;;
46717;SDS011;32448;44.960;-0.698;2023-02-04T04:20:59;10.93;;;7.05;;
46717;SDS011;32448;44.960;-0.698;2023-02-04T04:23:26;11.40;;;7.28;;
46717;SDS011;32448;44.960;-0.698;2023-02-04T04:25:53;10.57;;;6.75;;
46717;SDS011;32448;44.960;-0.698;2023-02-04T04:28:21;14.60;;;8.40;;
46717;SDS011;32448;44.960;-0.698;2023-02-04T04:30:48;15.52;;;7.90;;
46717;SDS011;32448;44.960;-0.698;2023-02-04T04:33:15;13.23;;;7.43;;
46717;SDS011;32448;44.960;-0.698;2023-02-04T04:35:43;12.15;;;7.57;;
46717;SDS011;32448;44.960;-0.698;2023-02-04T04:38:10;12.90;;;7.20;;
46717;SDS011;32448;44.960;-0.698;2023-02-04T04:40:37;15.45;;;7.97;;
46717;SDS011;32448;44.960;-0.698;2023-02-04T04:43:04;15.75;;;8.15;;
46717;SDS011;32448;44.960;-0.698;2023-02-04T04:45:32;12.85;;;7.72;;
46717;SDS011;32448;44.960;-0.698;2023-02-04T04:47:59;13.75;;;8.30;;
46717;SDS011;32448;44.960;-0.698;2023-02-04T04:50:26;18.00;;;9.48;;
46717;SDS011;32448;44.960;-0.698;2023-02-04T04:52:53;11.77;;;7.97;;
46717;SDS011;32448;44.960;-0.698;2023-02-04T04:55:21;12.82;;;8.02;;
46717;SDS011;32448;44.960;-0.698;2023-02-04T04:57:48;16.52;;;8.25;;
46717;SDS011;32448;44.960;-0.698;2023-02-04T05:00:19;19.85;;;8.77;;
46717;SDS011;32448;44.960;-0.698;2023-02-04T05:02:47;15.40;;;8.88;;
46717;SDS011;32448;44.960;-0.698;2023-02-04T05:05:14;13.35;;;8.45;;
46717;SDS011;32448;44.960;-0.698;2023-02-04T05:07:42;15.25;;;9.25;;
46717;SDS011;32448;44.960;-0.698;2023-02-04T05:10:09;16.95;;;9.52;;
46717;SDS011;32448;44.960;-0.698;2023-02-04T05:12:37;14.82;;;9.25;;
46717;SDS011;32448;44.960;-0.698;2023-02-04T05:15:05;19.98;;;9.90;;
46717;SDS011;32448;44.960;-0.698;2023-02-04T05:17:33;18.80;;;9.43;;
46717;SDS011;32448;44.960;-0.698;2023-02-04T05:20:00;14.63;;;8.85;;
46717;SDS011;32448;44.960;-0.698;2023-02-04T05:22:40;16.60;;;8.63;;
46717;SDS011;32448;44.960;-0.698;2023-02-04T05:25:08;15.88;;;10.18;;
46717;SDS011;32448;44.960;-0.698;2023-02-04T05:27:40;16.48;;;8.90;;
46717;SDS011;32448;44.960;-0.698;2023-02-04T05:30:09;15.88;;;9.40;;
46717;SDS011;32448;44.960;-0.698;2023-02-04T05:32:37;12.57;;;8.18;;
46717;SDS011;32448;44.960;-0.698;2023-02-04T05:35:04;16.95;;;9.48;;
46717;SDS011;32448;44.960;-0.698;2023-02-04T05:37:32;18.45;;;9.70;;
46717;SDS011;32448;44.960;-0.698;2023-02-04T05:39:59;18.65;;;9.90;;
46717;SDS011;32448;44.960;-0.698;2023-02-04T05:42:27;14.32;;;8.75;;
46717;SDS011;32448;44.960;-0.698;2023-02-04T05:44:54;14.38;;;8.88;;
46717;SDS011;32448;44.960;-0.698;2023-02-04T05:47:23;16.73;;;10.13;;
46717;SDS011;32448;44.960;-0.698;2023-02-04T05:49:50;18.73;;;9.38;;
46717;SDS011;32448;44.960;-0.698;2023-02-04T05:52:18;17.50;;;9.23;;
46717;SDS011;32448;44.960;-0.698;2023-02-04T05:54:45;18.33;;;10.05;;
46717;SDS011;32448;44.960;-0.698;2023-02-04T05:57:13;19.85;;;10.35;;
46717;SDS011;32448;44.960;-0.698;2023-02-04T05:59:40;16.25;;;10.00;;
46717;SDS011;32448;44.960;-0.698;2023-02-04T06:02:07;19.23;;;10.77;;
46717;SDS011;32448;44.960;-0.698;2023-02-04T06:04:34;18.08;;;10.48;;
46717;SDS011;32448;44.960;-0.698;2023-02-04T06:07:03;21.38;;;10.57;;
46717;SDS011;32448;44.960;-0.698;2023-02-04T06:09:31;23.92;;;11.77;;
46717;SDS011;32448;44.960;-0.698;2023-02-04T06:12:00;19.60;;;11.73;;
46717;SDS011;32448;44.960;-0.698;2023-02-04T06:14:29;17.20;;;10.30;;
46717;SDS011;32448;44.960;-0.698;2023-02-04T06:16:57;21.05;;;11.63;;
46717;SDS011;32448;44.960;-0.698;2023-02-04T06:19:26;17.38;;;11.15;;
46717;SDS011;32448;44.960;-0.698;2023-02-04T06:21:54;18.05;;;10.65;;
46717;SDS011;32448;44.960;-0.698;2023-02-04T06:24:23;16.80;;;10.23;;
46717;SDS011;32448;44.960;-0.698;2023-02-04T06:26:56;21.17;;;11.63;;
46717;SDS011;32448;44.960;-0.698;2023-02-04T06:29:27;17.25;;;10.13;;
46717;SDS011;32448;44.960;-0.698;2023-02-04T06:31:56;23.70;;;12.13;;
46717;SDS011;32448;44.960;-0.698;2023-02-04T06:34:24;23.00;;;12.88;;
46717;SDS011;32448;44.960;-0.698;2023-02-04T06:36:53;20.85;;;12.40;;
46717;SDS011;32448;44.960;-0.698;2023-02-04T06:39:20;18.88;;;11.60;;
46717;SDS011;32448;44.960;-0.698;2023-02-04T06:41:48;22.05;;;11.95;;
46717;SDS011;32448;44.960;-0.698;2023-02-04T06:44:16;18.85;;;12.30;;
46717;SDS011;32448;44.960;-0.698;2023-02-04T06:46:43;22.52;;;13.00;;
46717;SDS011;32448;44.960;-0.698;2023-02-04T06:49:10;17.52;;;11.02;;
46717;SDS011;32448;44.960;-0.698;2023-02-04T06:51:38;20.35;;;12.20;;
46717;SDS011;32448;44.960;-0.698;2023-02-04T06:54:05;21.88;;;12.32;;
46717;SDS011;32448;44.960;-0.698;2023-02-04T06:56:33;17.20;;;11.32;;
46717;SDS011;32448;44.960;-0.698;2023-02-04T06:59:00;17.65;;;11.88;;
46717;SDS011;32448;44.960;-0.698;2023-02-04T07:01:29;17.75;;;11.18;;
46717;SDS011;32448;44.960;-0.698;2023-02-04T07:03:56;21.70;;;11.57;;
46717;SDS011;32448;44.960;-0.698;2023-02-04T07:06:23;17.25;;;10.05;;
46717;SDS011;32448;44.960;-0.698;2023-02-04T07:08:51;16.33;;;10.13;;
46717;SDS011;32448;44.960;-0.698;2023-02-04T07:11:18;18.20;;;10.10;;
46717;SDS011;32448;44.960;-0.698;2023-02-04T07:13:46;17.13;;;10.13;;
46717;SDS011;32448;44.960;-0.698;2023-02-04T07:16:13;17.33;;;10.32;;
46717;SDS011;32448;44.960;-0.698;2023-02-04T07:18:41;16.10;;;8.85;;
46717;SDS011;32448;44.960;-0.698;2023-02-04T07:23:41;15.80;;;9.30;;
46717;SDS011;32448;44.960;-0.698;2023-02-04T07:26:08;15.27;;;8.63;;
46717;SDS011;32448;44.960;-0.698;2023-02-04T07:28:36;13.35;;;9.00;;
46717;SDS011;32448;44.960;-0.698;2023-02-04T07:31:03;13.60;;;9.15;;
46717;SDS011;32448;44.960;-0.698;2023-02-04T07:33:31;14.95;;;9.10;;
46717;SDS011;32448;44.960;-0.698;2023-02-04T07:35:58;15.27;;;10.15;;
46717;SDS011;32448;44.960;-0.698;2023-02-04T07:38:25;16.63;;;9.98;;
46717;SDS011;32448;44.960;-0.698;2023-02-04T07:40:53;14.82;;;9.15;;
46717;SDS011;32448;44.960;-0.698;2023-02-04T07:43:20;17.13;;;10.73;;
46717;SDS011;32448;44.960;-0.698;2023-02-04T07:45:48;18.02;;;9.90;;
46717;SDS011;32448;44.960;-0.698;2023-02-04T07:48:16;16.92;;;9.73;;
46717;SDS011;32448;44.960;-0.698;2023-02-04T07:50:43;13.40;;;8.93;;
46717;SDS011;32448;44.960;-0.698;2023-02-04T07:53:11;14.15;;;9.18;;
46717;SDS011;32448;44.960;-0.698;2023-02-04T07:55:38;16.05;;;9.50;;
46717;SDS011;32448;44.960;-0.698;2023-02-04T07:58:05;14.98;;;9.23;;
46717;SDS011;32448;44.960;-0.698;2023-02-04T08:00:33;13.88;;;9.13;;
46717;SDS011;32448;44.960;-0.698;2023-02-04T08:03:00;18.13;;;9.25;;
46717;SDS011;32448;44.960;-0.698;2023-02-04T08:05:27;17.02;;;10.40;;
46717;SDS011;32448;44.960;-0.698;2023-02-04T08:07:56;17.25;;;10.35;;
46717;SDS011;32448;44.960;-0.698;2023-02-04T08:10:24;19.92;;;10.73;;
46717;SDS011;32448;44.960;-0.698;2023-02-04T08:12:52;17.23;;;10.35;;
46717;SDS011;32448;44.960;-0.698;2023-02-04T08:15:19;17.80;;;10.18;;
46717;SDS011;32448;44.960;-0.698;2023-02-04T08:17:47;16.50;;;10.25;;
46717;SDS011;32448;44.960;-0.698;2023-02-04T08:20:14;17.48;;;10.10;;
46717;SDS011;32448;44.960;-0.698;2023-02-04T08:22:44;17.25;;;10.10;;
46717;SDS011;32448;44.960;-0.698;2023-02-04T08:25:11;17.85;;;10.50;;
46717;SDS011;32448;44.960;-0.698;2023-02-04T08:27:39;19.33;;;10.65;;
46717;SDS011;32448;44.960;-0.698;2023-02-04T08:30:06;19.88;;;12.02;;
46717;SDS011;32448;44.960;-0.698;2023-02-04T08:32:34;17.90;;;11.30;;
46717;SDS011;32448;44.960;-0.698;2023-02-04T08:35:05;17.08;;;11.05;;
46717;SDS011;32448;44.960;-0.698;2023-02-04T08:37:34;19.17;;;11.38;;
46717;SDS011;32448;44.960;-0.698;2023-02-04T08:40:01;26.42;;;14.23;;
46717;SDS011;32448;44.960;-0.698;2023-02-04T08:42:29;26.13;;;14.70;;
46717;SDS011;32448;44.960;-0.698;2023-02-04T08:44:57;24.00;;;14.20;;
46717;SDS011;32448;44.960;-0.698;2023-02-04T08:47:25;26.58;;;15.15;;
46717;SDS011;32448;44.960;-0.698;2023-02-04T08:49:52;23.80;;;14.30;;
46717;SDS011;32448;44.960;-0.698;2023-02-04T08:52:19;23.95;;;14.13;;
46717;SDS011;32448;44.960;-0.698;2023-02-04T08:54:46;27.48;;;15.57;;
46717;SDS011;32448;44.960;-0.698;2023-02-04T08:57:14;25.00;;;16.13;;
46717;SDS011;32448;44.960;-0.698;2023-02-04T08:59:43;24.98;;;15.48;;
46717;SDS011;32448;44.960;-0.698;2023-02-04T09:02:11;26.90;;;15.55;;
46717;SDS011;32448;44.960;-0.698;2023-02-04T09:04:39;25.27;;;16.30;;
46717;SDS011;32448;44.960;-0.698;2023-02-04T09:07:06;21.05;;;14.32;;
46717;SDS011;32448;44.960;-0.698;2023-02-04T09:09:33;24.27;;;15.43;;
46717;SDS011;32448;44.960;-0.698;2023-02-04T09:12:01;23.77;;;15.40;;
46717;SDS011;32448;44.960;-0.698;2023-02-04T09:14:29;23.25;;;14.30;;
46717;SDS011;32448;44.960;-0.698;2023-02-04T09:16:57;21.00;;;14.02;;
46717;SDS011;32448;44.960;-0.698;2023-02-04T09:19:24;22.90;;;14.10;;
46717;SDS011;32448;44.960;-0.698;2023-02-04T09:21:52;20.85;;;13.88;;
46717;SDS011;32448;44.960;-0.698;2023-02-04T09:24:19;23.10;;;13.10;;
46717;SDS011;32448;44.960;-0.698;2023-02-04T09:26:49;20.42;;;13.50;;
46717;SDS011;32448;44.960;-0.698;2023-02-04T09:29:17;21.85;;;13.70;;
46717;SDS011;32448;44.960;-0.698;2023-02-04T09:31:44;21.60;;;13.57;;
46717;SDS011;32448;44.960;-0.698;2023-02-04T09:34:11;18.33;;;13.00;;
46717;SDS011;32448;44.960;-0.698;2023-02-04T09:36:39;21.95;;;13.20;;
46717;SDS011;32448;44.960;-0.698;2023-02-04T09:39:06;19.88;;;12.75;;
46717;SDS011;32448;44.960;-0.698;2023-02-04T09:41:37;18.30;;;12.13;;
46717;SDS011;32448;44.960;-0.698;2023-02-04T09:44:13;17.23;;;12.05;;
46717;SDS011;32448;44.960;-0.698;2023-02-04T09:46:44;18.05;;;12.20;;
46717;SDS011;32448;44.960;-0.698;2023-02-04T09:49:15;19.20;;;12.27;;
46717;SDS011;32448;44.960;-0.698;2023-02-04T09:51:43;19.92;;;11.98;;
46717;SDS011;32448;44.960;-0.698;2023-02-04T09:54:17;16.88;;;12.05;;
46717;SDS011;32448;44.960;-0.698;2023-02-04T09:56:46;16.63;;;11.70;;
46717;SDS011;32448;44.960;-0.698;2023-02-04T09:59:18;19.85;;;10.95;;
46717;SDS011;32448;44.960;-0.698;2023-02-04T10:02:00;20.98;;;12.63;;
46717;SDS011;32448;44.960;-0.698;2023-02-04T10:04:29;20.83;;;12.63;;
46717;SDS011;32448;44.960;-0.698;2023-02-04T10:06:56;18.25;;;12.02;;
46717;SDS011;32448;44.960;-0.698;2023-02-04T10:09:27;18.67;;;11.77;;
46717;SDS011;32448;44.960;-0.698;2023-02-04T10:11:54;15.85;;;10.52;;
46717;SDS011;32448;44.960;-0.698;2023-02-04T10:14:24;19.02;;;12.20;;
46717;SDS011;32448;44.960;-0.698;2023-02-04T10:16:55;16.73;;;11.73;;
46717;SDS011;32448;44.960;-0.698;2023-02-04T10:19:26;19.27;;;12.35;;
46717;SDS011;32448;44.960;-0.698;2023-02-04T10:21:57;18.38;;;11.77;;
46717;SDS011;32448;44.960;-0.698;2023-02-04T10:24:24;15.57;;;10.98;;
46717;SDS011;32448;44.960;-0.698;2023-02-04T10:27:06;17.13;;;11.15;;
46717;SDS011;32448;44.960;-0.698;2023-02-04T10:29:35;19.08;;;11.20;;
46717;SDS011;32448;44.960;-0.698;2023-02-04T10:32:02;18.58;;;11.27;;
46717;SDS011;32448;44.960;-0.698;2023-02-04T10:34:34;16.55;;;10.50;;
46717;SDS011;32448;44.960;-0.698;2023-02-04T10:37:17;14.77;;;10.55;;
46717;SDS011;32448;44.960;-0.698;2023-02-04T10:39:47;13.38;;;9.48;;
46717;SDS011;32448;44.960;-0.698;2023-02-04T10:42:19;12.23;;;9.48;;
46717;SDS011;32448;44.960;-0.698;2023-02-04T10:44:53;13.18;;;9.43;;
46717;SDS011;32448;44.960;-0.698;2023-02-04T10:47:24;14.70;;;10.20;;
46717;SDS011;32448;44.960;-0.698;2023-02-04T10:50:05;15.90;;;9.32;;
46717;SDS011;32448;44.960;-0.698;2023-02-04T10:52:42;14.95;;;9.45;;
46717;SDS011;32448;44.960;-0.698;2023-02-04T10:55:13;15.10;;;8.63;;
46717;SDS011;32448;44.960;-0.698;2023-02-04T10:57:44;12.65;;;8.70;;
46717;SDS011;32448;44.960;-0.698;2023-02-04T11:00:21;12.40;;;8.90;;
46717;SDS011;32448;44.960;-0.698;2023-02-04T11:03:01;13.80;;;8.65;;
46717;SDS011;32448;44.960;-0.698;2023-02-04T11:05:34;14.23;;;9.63;;
46717;SDS011;32448;44.960;-0.698;2023-02-04T11:08:03;10.88;;;8.30;;
46717;SDS011;32448;44.960;-0.698;2023-02-04T11:10:55;11.25;;;8.02;;
46717;SDS011;32448;44.960;-0.698;2023-02-04T11:13:24;13.75;;;9.20;;
46717;SDS011;32448;44.960;-0.698;2023-02-04T11:16:06;11.55;;;8.45;;
46717;SDS011;32448;44.960;-0.698;2023-02-04T11:21:25;12.57;;;8.75;;
46717;SDS011;32448;44.960;-0.698;2023-02-04T11:26:43;14.05;;;8.70;;
46717;SDS011;32448;44.960;-0.698;2023-02-04T11:29:30;11.40;;;8.43;;
46717;SDS011;32448;44.960;-0.698;2023-02-04T11:35:19;13.48;;;8.13;;
46717;SDS011;32448;44.960;-0.698;2023-02-04T11:37:51;12.73;;;8.18;;
46717;SDS011;32448;44.960;-0.698;2023-02-04T11:40:22;13.48;;;8.43;;
46717;SDS011;32448;44.960;-0.698;2023-02-04T11:45:32;12.85;;;9.77;;
46717;SDS011;32448;44.960;-0.698;2023-02-04T11:48:23;14.15;;;9.57;;
46717;SDS011;32448;44.960;-0.698;2023-02-04T11:51:00;10.85;;;7.70;;
46717;SDS011;32448;44.960;-0.698;2023-02-04T11:53:29;11.10;;;8.57;;
46717;SDS011;32448;44.960;-0.698;2023-02-04T11:55:59;13.15;;;8.05;;
46717;SDS011;32448;44.960;-0.698;2023-02-04T11:58:28;10.80;;;7.95;;
46717;SDS011;32448;44.960;-0.698;2023-02-04T12:00:57;13.65;;;8.35;;
46717;SDS011;32448;44.960;-0.698;2023-02-04T12:03:32;11.88;;;7.93;;
46717;SDS011;32448;44.960;-0.698;2023-02-04T12:06:01;12.20;;;7.90;;
46717;SDS011;32448;44.960;-0.698;2023-02-04T12:08:32;11.48;;;8.02;;
46717;SDS011;32448;44.960;-0.698;2023-02-04T12:11:10;9.63;;;6.53;;
46717;SDS011;32448;44.960;-0.698;2023-02-04T12:13:53;12.18;;;7.22;;
46717;SDS011;32448;44.960;-0.698;2023-02-04T12:16:22;13.02;;;7.40;;
46717;SDS011;32448;44.960;-0.698;2023-02-04T12:18:50;9.85;;;6.72;;
46717;SDS011;32448;44.960;-0.698;2023-02-04T12:21:18;9.18;;;6.70;;
46717;SDS011;32448;44.960;-0.698;2023-02-04T12:23:45;9.93;;;6.90;;
46717;SDS011;32448;44.960;-0.698;2023-02-04T12:26:12;10.80;;;7.57;;
46717;SDS011;32448;44.960;-0.698;2023-02-04T12:28:40;9.63;;;6.82;;
46717;SDS011;32448;44.960;-0.698;2023-02-04T12:31:07;11.85;;;6.78;;
46717;SDS011;32448;44.960;-0.698;2023-02-04T12:33:34;10.27;;;6.70;;
46717;SDS011;32448;44.960;-0.698;2023-02-04T12:36:02;9.73;;;6.65;;
46717;SDS011;32448;44.960;-0.698;2023-02-04T12:38:30;10.15;;;6.38;;
46717;SDS011;32448;44.960;-0.698;2023-02-04T12:40:58;10.27;;;6.63;;
46717;SDS011;32448;44.960;-0.698;2023-02-04T12:43:26;10.43;;;6.78;;
46717;SDS011;32448;44.960;-0.698;2023-02-04T12:45:54;9.63;;;6.90;;
46717;SDS011;32448;44.960;-0.698;2023-02-04T12:48:23;10.85;;;7.03;;
46717;SDS011;32448;44.960;-0.698;2023-02-04T12:50:52;8.07;;;5.95;;
46717;SDS011;32448;44.960;-0.698;2023-02-04T12:53:22;10.48;;;6.13;;
46717;SDS011;32448;44.960;-0.698;2023-02-04T12:55:50;7.95;;;5.90;;
46717;SDS011;32448;44.960;-0.698;2023-02-04T12:58:18;7.38;;;5.53;;
46717;SDS011;32448;44.960;-0.698;2023-02-04T13:00:46;9.10;;;5.55;;
46717;SDS011;32448;44.960;-0.698;2023-02-04T13:03:14;8.80;;;5.70;;
46717;SDS011;32448;44.960;-0.698;2023-02-04T13:05:41;8.32;;;5.53;;
46717;SDS011;32448;44.960;-0.698;2023-02-04T13:08:09;9.90;;;6.15;;
46717;SDS011;32448;44.960;-0.698;2023-02-04T13:10:36;7.82;;;5.32;;
46717;SDS011;32448;44.960;-0.698;2023-02-04T13:13:04;8.25;;;4.95;;
46717;SDS011;32448;44.960;-0.698;2023-02-04T13:15:31;6.68;;;4.53;;
46717;SDS011;32448;44.960;-0.698;2023-02-04T13:17:59;5.72;;;4.40;;
46717;SDS011;32448;44.960;-0.698;2023-02-04T13:20:27;6.40;;;4.22;;
46717;SDS011;32448;44.960;-0.698;2023-02-04T13:22:55;5.38;;;3.80;;
46717;SDS011;32448;44.960;-0.698;2023-02-04T13:25:22;5.38;;;3.22;;
46717;SDS011;32448;44.960;-0.698;2023-02-04T13:27:49;5.13;;;3.33;;
46717;SDS011;32448;44.960;-0.698;2023-02-04T13:30:17;7.50;;;3.20;;
46717;SDS011;32448;44.960;-0.698;2023-02-04T13:32:44;5.20;;;3.35;;
46717;SDS011;32448;44.960;-0.698;2023-02-04T13:35:12;6.03;;;3.67;;
46717;SDS011;32448;44.960;-0.698;2023-02-04T13:37:39;5.10;;;3.25;;
46717;SDS011;32448;44.960;-0.698;2023-02-04T13:40:06;4.55;;;2.47;;
46717;SDS011;32448;44.960;-0.698;2023-02-04T13:42:35;7.18;;;3.30;;
46717;SDS011;32448;44.960;-0.698;2023-02-04T13:45:02;6.63;;;4.18;;
46717;SDS011;32448;44.960;-0.698;2023-02-04T13:47:30;8.80;;;4.53;;
46717;SDS011;32448;44.960;-0.698;2023-02-04T13:49:58;5.82;;;3.67;;
46717;SDS011;32448;44.960;-0.698;2023-02-04T13:52:25;5.43;;;3.35;;
46717;SDS011;32448;44.960;-0.698;2023-02-04T13:54:53;6.35;;;3.13;;
46717;SDS011;32448;44.960;-0.698;2023-02-04T13:57:24;4.25;;;2.60;;
46717;SDS011;32448;44.960;-0.698;2023-02-04T13:59:51;6.25;;;3.47;;
46717;SDS011;32448;44.960;-0.698;2023-02-04T14:02:19;9.15;;;4.15;;
46717;SDS011;32448;44.960;-0.698;2023-02-04T14:04:49;3.58;;;2.30;;
46717;SDS011;32448;44.960;-0.698;2023-02-04T14:07:16;4.07;;;2.63;;
46717;SDS011;32448;44.960;-0.698;2023-02-04T14:09:44;3.88;;;2.47;;
46717;SDS011;32448;44.960;-0.698;2023-02-04T14:12:14;3.35;;;2.40;;
46717;SDS011;32448;44.960;-0.698;2023-02-04T14:14:41;4.22;;;2.85;;
46717;SDS011;32448;44.960;-0.698;2023-02-04T14:17:09;4.78;;;3.15;;
46717;SDS011;32448;44.960;-0.698;2023-02-04T14:19:36;9.50;;;5.40;;
46717;SDS011;32448;44.960;-0.698;2023-02-04T14:22:03;7.05;;;2.72;;
46717;SDS011;32448;44.960;-0.698;2023-02-04T14:24:31;4.45;;;2.58;;
46717;SDS011;32448;44.960;-0.698;2023-02-04T14:26:58;5.85;;;3.08;;
46717;SDS011;32448;44.960;-0.698;2023-02-04T14:29:25;5.18;;;3.00;;
46717;SDS011;32448;44.960;-0.698;2023-02-04T14:31:53;4.53;;;1.90;;
46717;SDS011;32448;44.960;-0.698;2023-02-04T14:34:21;4.28;;;1.60;;
46717;SDS011;32448;44.960;-0.698;2023-02-04T14:36:49;2.80;;;1.77;;
46717;SDS011;32448;44.960;-0.698;2023-02-04T14:39:16;3.88;;;1.85;;
46717;SDS011;32448;44.960;-0.698;2023-02-04T14:41:44;2.10;;;1.67;;